Hiroshima Airport
RJOA : now visible

Airfield :











YOU CAN JOIN US ON...

 
LOGIN :

Register | Disclaimer

   EN    FR    IT 

 









Legend :    VFR   Marginal VFR   IFR   Intensive IFR   Very Intensive IFR
Visi :
Ceiling :
>= 8 km
>= 3000ft
5 to 8 km
1000 to 3000 ft
1500m to 5 km
500 to 1000 ft
800 to 1500m
200 to 500 ft
< 800m
< 200 ft
Symbols :   Thunderstorms  Fog  Heavy snow  Heavy precipitations  Wind > 20 kt







- Airport Elevation : 1088 ft
- IATA code : HIJ


RJOA - Hiroshima

CURRENT METAR :
  • 190600Z 13005KT 8000 -SHRA PRFG FEW000 SCT010 BKN150 25/21 Q1011

EXPIRED METARs :
  • 190500Z 15003KT 110V180 2500 -SHRA BCFG BR FEW000 SCT002 BKN025 25/22 Q1011
  • 190400Z VRB02KT 2000 -SHRA BCFG BR FEW000 SCT002 BKN005 24/22 Q1011

TAF TAF RJOA
Valid from the 19 at 06:00 until the 20 at 12:00 UTC


190506Z 1906/2012 04004KT 6000 -SHRA FEW001 SCT006 BKN015
TEMPO 1906/1909 2000 SHRA BR BCFG FEW000 SCT005 BKN008
BECMG 1913/1915 3000 BR FEW001 SCT005 BKN008
TEMPO 1921/2003 1500 +SHRA BR BCFG FEW000 SCT003 BKN005 FEW015CB
BECMG 2003/2006 24005KT FEW002 SCT008 BKN015
BECMG 2009/2012 6000 NSW
No reported NOTAMs for that airfield.



MET'MAP, your aeronautical weather chart ! - Copyright ORBIFLY December 2007 - Disclaimer

ORBIFLY MET'MAP TEAM :

Programming & Development : Alexandra Zaïnal
Concept & Development : Baudouin d'Aumeries
Co-Development & Prog : Marc-Olivier Méhu
Technical & hardware support : Manuel Goepfert

Contact : metmap@orbifly.com




SOURCES & CREDITS :

   NOAA       Earth
Advisory